Time;durP1;ratioP1;P1;durP2;ratioP2;P2;SDS_P1;SDS_P2;PMS_P1;PMS_P2;Temp;Humidity;BMP_temperature;BMP_pressure;BME280_temperature;BME280_humidity;BME280_pressure;Samples;Min_cycle;Max_cycle;Signal;HPM_P1;HPM_P2
2021/12/23 00:01:06;;;;;;;3.10;2.50;;;;;;;-1.36;80.69;101774.34;5055005;28;20348;-72
2021/12/23 00:03:31;;;;;;;0.50;0.50;;;;;;;-1.38;81.35;101774.19;5055584;28;20028;-72
2021/12/23 00:05:57;;;;;;;0.40;0.40;;;;;;;-1.40;81.59;101774.06;5057113;28;20084;-72
2021/12/23 00:08:25;;;;;;;0.43;0.43;;;;;;;-1.36;80.94;101779.47;5057106;28;20021;-72
2021/12/23 00:10:51;;;;;;;1.20;1.10;;;;;;;-1.31;80.15;101793.66;5055909;28;20048;-72
2021/12/23 00:13:16;;;;;;;0.53;0.53;;;;;;;-1.35;80.63;101771.91;5056115;28;20662;-72
2021/12/23 00:16:18;;;;;;;0.50;0.50;;;;;;;-1.37;80.76;101773.41;5055893;28;20159;-73
2021/12/23 00:23:58;;;;;;;0.40;0.40;;;;;;;-1.40;80.43;101750.03;5055990;28;20381;-72
2021/12/23 00:26:24;;;;;;;0.60;0.60;;;;;;;-1.42;80.33;101756.69;5039805;28;20311;-73
2021/12/23 00:28:50;;;;;;;0.50;0.50;;;;;;;-1.42;80.53;101737.03;5051016;28;20318;-72
2021/12/23 00:31:16;;;;;;;2.00;1.90;;;;;;;-1.42;80.33;101738.72;5027896;28;20038;-73
2021/12/23 00:33:42;;;;;;;0.30;0.30;;;;;;;-1.32;79.96;101709.63;5045894;28;20274;-73
2021/12/23 00:36:10;;;;;;;0.40;0.40;;;;;;;-1.24;79.22;101708.63;5036923;28;20034;-73
2021/12/23 00:38:41;;;;;;;0.50;0.50;;;;;;;-1.22;78.37;101726.75;5036701;28;20279;-73
2021/12/23 00:41:08;;;;;;;0.40;0.40;;;;;;;-1.20;78.74;101726.13;5046728;28;20295;-73
2021/12/23 00:43:33;;;;;;;0.40;0.40;;;;;;;-1.22;78.66;101714.81;5055986;28;20282;-73
2021/12/23 00:45:59;;;;;;;0.40;0.40;;;;;;;-1.22;79.30;101699.38;5055429;28;20275;-74
2021/12/23 00:48:25;;;;;;;0.30;0.30;;;;;;;-1.23;78.95;101686.38;5056409;28;20063;-72
2021/12/23 00:50:51;;;;;;;0.50;0.50;;;;;;;-1.21;78.17;101690.91;5056980;28;20017;-73
2021/12/23 00:53:19;;;;;;;0.50;0.50;;;;;;;-1.21;78.38;101696.06;5057437;28;20286;-73
2021/12/23 00:55:48;;;;;;;0.40;0.40;;;;;;;-1.23;78.17;101677.03;5057027;28;20420;-73
2021/12/23 00:58:13;;;;;;;0.60;0.60;;;;;;;-1.22;78.10;101675.34;5043457;28;20543;-72
2021/12/23 01:00:39;;;;;;;0.40;0.40;;;;;;;-1.28;78.53;101684.31;5035845;28;20268;-73
2021/12/23 01:03:05;;;;;;;0.40;0.40;;;;;;;-1.31;78.54;101681.47;5036432;28;20657;-73
2021/12/23 01:05:30;;;;;;;0.40;0.40;;;;;;;-1.33;79.23;101684.66;5035655;28;20067;-73
2021/12/23 01:07:56;;;;;;;2.30;2.20;;;;;;;-1.32;78.93;101671.06;5047486;28;20354;-73
2021/12/23 01:10:24;;;;;;;0.50;0.50;;;;;;;-1.34;78.69;101682.84;5055377;28;20033;-73
2021/12/23 01:12:56;;;;;;;0.50;0.50;;;;;;;-1.35;78.65;101670.78;5056389;28;20025;-73
2021/12/23 01:17:56;;;;;;;0.40;0.40;;;;;;;-1.48;79.68;101669.69;5056421;28;20282;-73
2021/12/23 01:20:29;;;;;;;0.40;0.40;;;;;;;-1.48;79.13;101679.03;5056460;28;20259;-73
2021/12/23 01:22:57;;;;;;;0.40;0.40;;;;;;;-1.51;79.51;101674.53;5055458;28;20307;-73
2021/12/23 01:25:23;;;;;;;0.30;0.30;;;;;;;-1.57;79.66;101662.03;5042292;28;20276;-73
2021/12/23 01:27:49;;;;;;;0.30;0.30;;;;;;;-1.61;79.95;101657.41;5036258;28;20322;-73
2021/12/23 01:30:17;;;;;;;0.50;0.50;;;;;;;-1.61;80.07;101656.47;5036154;28;20075;-74
2021/12/23 01:32:46;;;;;;;0.40;0.40;;;;;;;-1.63;79.74;101655.44;5036269;28;20101;-73
2021/12/23 01:35:11;;;;;;;0.40;0.40;;;;;;;-1.62;79.84;101655.56;5038284;28;20323;-73
2021/12/23 01:37:37;;;;;;;0.70;0.70;;;;;;;-1.65;79.71;101652.72;5042410;28;21870;-73
2021/12/23 01:40:04;;;;;;;0.50;0.50;;;;;;;-1.71;80.29;101654.72;5059335;28;20072;-74
2021/12/23 01:42:29;;;;;;;0.50;0.50;;;;;;;-1.79;80.69;101656.63;5059222;28;20263;-73
2021/12/23 01:44:55;;;;;;;0.50;0.50;;;;;;;-1.83;80.62;101651.94;5059351;28;20586;-72
2021/12/23 01:47:20;;;;;;;0.50;0.50;;;;;;;-1.87;80.81;101658.47;5059611;28;20028;-72
2021/12/23 01:49:46;;;;;;;0.40;0.40;;;;;;;-1.91;81.09;101652.91;5059515;28;20406;-74
2021/12/23 01:52:11;;;;;;;0.40;0.40;;;;;;;-1.95;80.88;101657.78;5048301;28;20109;-72
2021/12/23 01:54:36;;;;;;;0.60;0.60;;;;;;;-2.00;81.62;101643.59;5039522;28;20048;-73
2021/12/23 01:57:03;;;;;;;0.40;0.40;;;;;;;-2.01;81.13;101623.84;5038918;28;20052;-72
2021/12/23 01:59:32;;;;;;;0.70;0.70;;;;;;;-2.02;81.56;101615.97;5038160;28;20021;-73
2021/12/23 02:01:57;;;;;;;0.30;0.30;;;;;;;-1.94;81.38;101613.38;5039012;28;20321;-74
2021/12/23 02:04:22;;;;;;;0.70;0.70;;;;;;;-1.82;80.82;101595.59;5039190;28;20526;-72
2021/12/23 02:06:48;;;;;;;0.50;0.50;;;;;;;-1.82;80.95;101585.34;5040620;28;20074;-73
2021/12/23 02:09:13;;;;;;;0.40;0.40;;;;;;;-1.81;81.00;101583.69;5058754;28;20037;-70
2021/12/23 02:11:39;;;;;;;0.50;0.50;;;;;;;-1.81;80.76;101586.25;5058866;28;20111;-72
2021/12/23 02:14:04;;;;;;;0.43;0.43;;;;;;;-1.81;81.25;101576.88;5058670;28;20021;-73
2021/12/23 02:16:29;;;;;;;0.40;0.40;;;;;;;-1.78;81.44;101573.69;5058744;28;20021;-72
2021/12/23 02:18:55;;;;;;;1.57;1.47;;;;;;;-1.73;81.09;101582.72;5057019;28;20064;-72
2021/12/23 02:21:20;;;;;;;0.40;0.40;;;;;;;-1.70;81.09;101582.97;5052243;28;20048;-73
2021/12/23 02:23:45;;;;;;;0.60;0.60;;;;;;;-1.71;81.54;101567.41;5038634;28;20079;-74
2021/12/23 02:26:11;;;;;;;0.40;0.40;;;;;;;-1.68;81.54;101578.88;5038651;28;20296;-73
2021/12/23 02:28:36;;;;;;;0.40;0.40;;;;;;;-1.66;81.45;101569.63;5038692;28;20061;-73
2021/12/23 02:31:02;;;;;;;0.30;0.30;;;;;;;-1.66;81.47;101579.00;5038083;28;20052;-73
2021/12/23 02:33:27;;;;;;;0.40;0.40;;;;;;;-1.61;81.27;101575.19;5037792;28;20021;-71
2021/12/23 02:35:55;;;;;;;0.50;0.50;;;;;;;-1.63;81.57;101574.13;5051692;28;20029;-72
2021/12/23 02:38:20;;;;;;;0.30;0.30;;;;;;;-1.64;81.97;101574.91;5057879;28;20021;-72
2021/12/23 02:40:46;;;;;;;0.40;0.40;;;;;;;-1.64;82.29;101572.34;5058231;28;20336;-72
2021/12/23 02:43:13;;;;;;;0.40;0.40;;;;;;;-1.62;82.17;101567.34;5058212;28;20052;-72
2021/12/23 02:45:39;;;;;;;0.40;0.40;;;;;;;-1.60;82.16;101570.94;5057814;28;20317;-72
2021/12/23 02:48:11;;;;;;;0.40;0.40;;;;;;;-1.59;82.11;101547.97;5055661;28;20295;-73
2021/12/23 02:50:36;;;;;;;0.40;0.40;;;;;;;-1.53;81.59;101545.94;5036809;28;20349;-73
2021/12/23 02:53:02;;;;;;;0.60;0.60;;;;;;;-1.57;81.70;101542.94;5038215;28;20722;-72
2021/12/23 02:55:27;;;;;;;0.40;0.40;;;;;;;-1.55;81.75;101541.44;5037757;28;20454;-72
2021/12/23 02:57:53;;;;;;;0.80;0.80;;;;;;;-1.58;81.59;101534.34;5039413;28;20032;-72
2021/12/23 03:00:19;;;;;;;0.50;0.50;;;;;;;-1.61;81.31;101539.25;5057375;28;20029;-72
2021/12/23 03:02:45;;;;;;;0.43;0.43;;;;;;;-1.63;81.65;101545.00;5057771;28;20056;-72
2021/12/23 03:05:10;;;;;;;0.70;0.70;;;;;;;-1.64;82.14;101538.06;5057589;28;20361;-72
2021/12/23 03:07:35;;;;;;;0.40;0.40;;;;;;;-1.59;81.85;101537.69;5057752;28;20057;-72
2021/12/23 03:10:04;;;;;;;0.30;0.30;;;;;;;-1.58;82.06;101541.16;5057421;28;20373;-72
2021/12/23 03:12:29;;;;;;;0.40;0.40;;;;;;;-1.63;82.30;101527.00;5056883;28;20110;-72
2021/12/23 03:14:55;;;;;;;0.40;0.40;;;;;;;-1.61;82.05;101525.47;5057622;28;20299;-73
2021/12/23 03:17:20;;;;;;;0.53;0.53;;;;;;;-1.61;82.00;101517.78;5057406;28;20025;-73
2021/12/23 03:19:45;;;;;;;0.40;0.40;;;;;;;-1.59;81.91;101493.13;5057495;28;20028;-73
2021/12/23 03:22:11;;;;;;;0.50;0.50;;;;;;;-1.61;82.18;101480.16;5057846;28;20344;-72
2021/12/23 03:24:36;;;;;;;0.30;0.30;;;;;;;-1.57;81.63;101486.44;5052413;28;20044;-72
2021/12/23 03:27:02;;;;;;;0.43;0.43;;;;;;;-1.56;81.56;101489.16;5038071;28;20040;-72
2021/12/23 03:29:27;;;;;;;0.50;0.50;;;;;;;-1.61;82.09;101492.09;5036939;28;20037;-72
2021/12/23 03:31:52;;;;;;;0.40;0.40;;;;;;;-1.56;81.71;101478.00;5037672;28;20025;-72
2021/12/23 03:34:18;;;;;;;0.30;0.30;;;;;;;-1.57;81.89;101481.28;5036622;28;20021;-72
2021/12/23 03:36:43;;;;;;;0.50;0.50;;;;;;;-1.59;82.05;101472.56;5037655;28;20025;-74
2021/12/23 03:39:09;;;;;;;0.40;0.40;;;;;;;-1.61;81.82;101494.66;5049281;28;20054;-73
2021/12/23 03:41:34;;;;;;;0.50;0.50;;;;;;;-1.66;82.29;101502.84;5057044;28;20079;-73
2021/12/23 03:44:00;;;;;;;0.40;0.40;;;;;;;-1.67;81.98;101489.88;5056867;28;20025;-73
2021/12/23 03:46:25;;;;;;;0.50;0.50;;;;;;;-1.64;82.44;101505.56;5057083;28;20450;-73
2021/12/23 03:48:50;;;;;;;0.40;0.40;;;;;;;-1.68;82.68;101488.97;5057537;28;20029;-72
2021/12/23 03:51:16;;;;;;;0.50;0.50;;;;;;;-1.63;82.47;101496.19;5056195;28;20048;-72
2021/12/23 03:53:41;;;;;;;0.40;0.40;;;;;;;-1.60;82.02;101501.59;5036948;28;20025;-73
2021/12/23 03:56:07;;;;;;;0.40;0.40;;;;;;;-1.63;82.14;101501.34;5037125;28;20108;-73
2021/12/23 03:58:32;;;;;;;0.40;0.40;;;;;;;-1.66;82.66;101500.28;5036680;28;20021;-73
2021/12/23 04:00:59;;;;;;;0.40;0.40;;;;;;;-1.66;82.64;101507.97;5036800;28;20030;-72
2021/12/23 04:03:25;;;;;;;0.30;0.30;;;;;;;-1.67;82.61;101513.00;5019448;28;20029;-74
2021/12/23 04:05:50;;;;;;;0.50;0.50;;;;;;;-1.61;82.50;101505.84;5045428;28;20349;-71
2021/12/23 04:08:16;;;;;;;0.30;0.30;;;;;;;-1.63;82.58;101506.47;5056061;28;20090;-73
2021/12/23 04:10:41;;;;;;;0.40;0.40;;;;;;;-1.65;82.56;101493.47;5056595;28;20025;-73
2021/12/23 04:13:06;;;;;;;0.33;0.33;;;;;;;-1.68;83.15;101490.66;5056803;28;20060;-73
2021/12/23 04:15:32;;;;;;;0.50;0.50;;;;;;;-1.69;83.06;101491.38;5056254;28;20029;-73
2021/12/23 04:17:57;;;;;;;0.40;0.40;;;;;;;-1.68;83.13;101488.97;5057000;28;20028;-73
2021/12/23 04:20:31;;;;;;;0.67;0.67;;;;;;;-1.68;83.26;101482.94;5055994;28;20041;-73
2021/12/23 04:22:56;;;;;;;0.50;0.50;;;;;;;-1.65;83.12;101483.22;5056000;28;20133;-73
2021/12/23 04:25:23;;;;;;;0.30;0.30;;;;;;;-1.67;83.28;101479.59;5056059;28;20722;-73
2021/12/23 04:27:50;;;;;;;0.30;0.30;;;;;;;-1.64;83.13;101491.81;5055428;28;20313;-72
2021/12/23 04:30:17;;;;;;;0.33;0.33;;;;;;;-1.62;82.93;101480.00;5055643;28;20275;-73
2021/12/23 04:32:42;;;;;;;2.17;1.43;;;;;;;-1.64;83.47;101492.72;5049698;28;20323;-74
2021/12/23 04:35:08;;;;;;;0.43;0.43;;;;;;;-1.65;83.33;101488.34;5036853;28;20307;-73
2021/12/23 04:37:34;;;;;;;1.33;1.30;;;;;;;-1.66;83.52;101456.59;5036509;28;20100;-73
2021/12/23 04:39:59;;;;;;;0.40;0.40;;;;;;;-1.62;83.62;101460.34;5036818;28;20425;-72
2021/12/23 04:42:25;;;;;;;0.40;0.40;;;;;;;-1.59;83.28;101457.16;5038297;28;20044;-72
2021/12/23 04:44:50;;;;;;;0.60;0.60;;;;;;;-1.63;83.65;101450.84;5056344;28;20021;-73
2021/12/23 04:47:16;;;;;;;0.43;0.43;;;;;;;-1.67;83.36;101449.66;5055672;28;20299;-72
2021/12/23 04:49:41;;;;;;;0.40;0.40;;;;;;;-1.69;83.78;101452.88;5056441;28;20296;-72
2021/12/23 04:52:06;;;;;;;0.30;0.30;;;;;;;-1.71;84.05;101454.41;5056391;28;20134;-72
2021/12/23 04:54:32;;;;;;;0.40;0.40;;;;;;;-1.75;84.13;101458.38;5055633;28;20041;-73
2021/12/23 04:56:57;;;;;;;0.70;0.70;;;;;;;-1.78;84.17;101455.53;5045715;28;20044;-72
2021/12/23 04:59:22;;;;;;;0.50;0.50;;;;;;;-1.80;84.39;101445.13;5036115;28;20028;-71
2021/12/23 05:01:49;;;;;;;0.40;0.40;;;;;;;-1.79;84.33;101433.19;5036184;28;20337;-71
2021/12/23 05:04:15;;;;;;;0.40;0.40;;;;;;;-1.77;84.33;101441.03;5036273;28;20025;-71
2021/12/23 05:06:41;;;;;;;0.30;0.30;;;;;;;-1.77;84.42;101423.03;5035101;28;20298;-72
2021/12/23 05:09:06;;;;;;;0.47;0.47;;;;;;;-1.74;84.50;101429.34;5036809;28;20029;-72
2021/12/23 05:11:31;;;;;;;0.40;0.40;;;;;;;-1.72;84.11;101421.78;5058842;28;20107;-71
2021/12/23 05:13:57;;;;;;;1.23;1.23;;;;;;;-1.68;84.58;101434.16;5059705;28;20048;-71
2021/12/23 05:16:22;;;;;;;0.30;0.30;;;;;;;-1.64;84.32;101414.78;5060127;28;20116;-71
2021/12/23 05:18:47;;;;;;;0.47;0.47;;;;;;;-1.62;84.06;101406.41;5059802;28;20105;-74
2021/12/23 05:21:13;;;;;;;0.20;0.20;;;;;;;-1.52;83.96;101408.09;5059601;28;20074;-71
2021/12/23 05:23:39;;;;;;;0.30;0.30;;;;;;;-1.53;84.04;101409.78;5052413;28;20112;-71
2021/12/23 05:26:08;;;;;;;0.30;0.30;;;;;;;-1.52;84.15;101406.47;5040041;28;20368;-71
2021/12/23 05:28:34;;;;;;;1.47;1.47;;;;;;;-1.43;83.89;101395.16;5039592;28;20132;-72
2021/12/23 05:31:00;;;;;;;0.30;0.30;;;;;;;-1.44;83.93;101393.38;5039761;28;20294;-72
2021/12/23 05:33:25;;;;;;;0.43;0.43;;;;;;;-1.45;83.83;101399.25;5039448;28;20280;-72
2021/12/23 05:35:51;;;;;;;0.63;0.63;;;;;;;-1.42;83.96;101389.25;5039769;28;20158;-71
2021/12/23 05:38:16;;;;;;;0.50;0.50;;;;;;;-1.39;83.82;101382.72;5055127;28;20040;-72
2021/12/23 05:40:41;;;;;;;0.50;0.50;;;;;;;-1.39;83.92;101381.78;5059183;28;20024;-73
2021/12/23 05:43:07;;;;;;;0.30;0.30;;;;;;;-1.40;84.26;101369.72;5059541;28;20110;-72
2021/12/23 05:45:32;;;;;;;0.40;0.40;;;;;;;-1.35;84.00;101358.19;5058912;28;20291;-73
2021/12/23 05:47:58;;;;;;;0.40;0.40;;;;;;;-1.29;83.60;101370.63;5059767;28;20025;-72
2021/12/23 05:50:24;;;;;;;0.40;0.40;;;;;;;-1.31;83.81;101382.47;5055599;28;20352;-73
2021/12/23 05:52:50;;;;;;;0.40;0.40;;;;;;;-1.31;83.97;101377.31;5039332;28;20379;-73
2021/12/23 05:55:16;;;;;;;0.40;0.40;;;;;;;-1.31;83.92;101378.22;5039362;28;20654;-72
2021/12/23 05:57:41;;;;;;;0.40;0.40;;;;;;;-1.26;83.66;101379.50;5038791;28;20272;-72
2021/12/23 06:00:15;;;;;;;0.40;0.40;;;;;;;-1.27;83.85;101376.81;5038948;28;20352;-73
2021/12/23 06:02:40;;;;;;;0.70;0.70;;;;;;;-1.24;83.85;101371.94;5038947;28;20056;-73
2021/12/23 06:05:06;;;;;;;0.30;0.30;;;;;;;-1.27;83.85;101364.88;5051481;28;20278;-73
2021/12/23 06:07:31;;;;;;;0.57;0.57;;;;;;;-1.23;83.91;101360.88;5058831;28;20025;-73
2021/12/23 06:10:00;;;;;;;0.40;0.40;;;;;;;-1.23;83.77;101358.31;5059021;28;20037;-72
2021/12/23 06:12:26;;;;;;;0.50;0.50;;;;;;;-1.20;83.96;101357.69;5058428;28;20021;-73
2021/12/23 06:14:52;;;;;;;0.20;0.20;;;;;;;-1.19;83.95;101354.34;5058519;28;20596;-73
2021/12/23 06:17:17;;;;;;;0.30;0.30;;;;;;;-1.18;83.70;101367.28;5058694;28;20279;-73
2021/12/23 06:19:43;;;;;;;0.33;0.33;;;;;;;-1.19;83.75;101388.63;5058342;28;20033;-74
2021/12/23 06:22:08;;;;;;;0.23;0.23;;;;;;;-1.17;83.83;101371.66;5059182;28;20073;-73
2021/12/23 06:24:33;;;;;;;0.30;0.30;;;;;;;-1.16;83.84;101370.91;5058737;28;20360;-73
2021/12/23 06:26:59;;;;;;;0.60;0.60;;;;;;;-1.16;83.75;101372.56;5059347;28;20025;-73
2021/12/23 06:29:24;;;;;;;0.40;0.40;;;;;;;-1.15;84.00;101364.09;5058694;28;20021;-74
2021/12/23 06:31:49;;;;;;;0.33;0.33;;;;;;;-1.14;84.13;101369.38;5050664;28;20124;-75
2021/12/23 06:34:15;;;;;;;0.23;0.23;;;;;;;-1.13;84.08;101359.97;5039213;28;20045;-73
2021/12/23 06:36:42;;;;;;;0.30;0.30;;;;;;;-1.14;84.07;101348.81;5038887;28;20136;-73
2021/12/23 06:39:07;;;;;;;0.20;0.20;;;;;;;-1.11;84.23;101354.19;5037997;28;20048;-74
2021/12/23 06:41:35;;;;;;;0.33;0.33;;;;;;;-1.09;84.22;101349.19;5037513;28;20275;-74
2021/12/23 06:44:01;;;;;;;0.30;0.30;;;;;;;-1.10;83.94;101337.09;5038265;28;20104;-74
2021/12/23 06:46:27;;;;;;;0.33;0.33;;;;;;;-1.08;83.87;101314.09;5020966;28;20268;-74
2021/12/23 06:48:52;;;;;;;0.30;0.30;;;;;;;-1.07;84.33;101318.47;5038715;28;20294;-75
2021/12/23 06:51:18;;;;;;;0.30;0.30;;;;;;;-1.01;84.02;101306.09;5039381;28;20296;-74
2021/12/23 06:53:43;;;;;;;0.30;0.30;;;;;;;-0.99;83.83;101312.28;5045054;28;20021;-75
2021/12/23 06:56:10;;;;;;;0.47;0.47;;;;;;;-0.91;83.35;101328.34;5040059;28;20166;-74
2021/12/23 06:58:38;;;;;;;0.30;0.30;;;;;;;-0.92;83.65;101326.53;5048537;28;20120;-74
2021/12/23 07:01:03;;;;;;;0.40;0.40;;;;;;;-0.93;83.54;101322.19;5046793;28;20292;-75
2021/12/23 07:03:44;;;;;;;0.30;0.30;;;;;;;-0.91;83.59;101325.75;5055464;28;20291;-76
2021/12/23 07:06:16;;;;;;;0.30;0.30;;;;;;;-0.94;84.17;101328.97;5057836;28;20025;-75
2021/12/23 07:08:42;;;;;;;0.90;0.90;;;;;;;-0.89;83.84;101332.84;5057806;28;20350;-74
2021/12/23 07:11:07;;;;;;;0.53;0.53;;;;;;;-0.89;83.59;101334.50;5057117;28;20424;-75
2021/12/23 07:13:33;;;;;;;0.30;0.30;;;;;;;-0.90;83.76;101340.41;5057224;28;20063;-75
2021/12/23 07:16:01;;;;;;;0.30;0.30;;;;;;;-0.92;83.83;101350.59;5057318;28;20063;-75
2021/12/23 07:18:26;;;;;;;0.40;0.40;;;;;;;-0.92;83.97;101336.81;5057640;28;20068;-74
2021/12/23 07:20:51;;;;;;;0.30;0.30;;;;;;;-0.87;83.84;101344.13;5057228;28;20318;-75
2021/12/23 07:23:17;;;;;;;0.40;0.40;;;;;;;-0.84;83.79;101352.13;5057460;28;20315;-76
2021/12/23 07:25:42;;;;;;;0.30;0.30;;;;;;;-0.86;83.96;101347.63;5047284;28;20073;-76
2021/12/23 07:28:07;;;;;;;0.30;0.30;;;;;;;-0.89;84.20;101344.78;5037884;28;20025;-75
2021/12/23 07:30:33;;;;;;;0.40;0.40;;;;;;;-0.89;84.25;101340.56;5037009;28;20072;-75
2021/12/23 07:33:00;;;;;;;0.30;0.30;;;;;;;-0.86;84.26;101339.91;5036913;28;20091;-75
2021/12/23 07:35:25;;;;;;;0.50;0.50;;;;;;;-0.88;84.10;101326.03;5037239;28;20040;-76
2021/12/23 07:37:51;;;;;;;0.23;0.23;;;;;;;-0.83;83.86;101319.56;5037019;28;20276;-76
2021/12/23 07:40:17;;;;;;;0.30;0.30;;;;;;;-0.78;83.79;101309.66;5036785;28;20038;-77
2021/12/23 07:42:54;;;;;;;0.30;0.30;;;;;;;-0.80;83.52;101301.84;5055305;28;20068;-76
2021/12/23 07:45:27;;;;;;;0.40;0.40;;;;;;;-0.81;83.93;101286.28;5056992;28;20279;-77
2021/12/23 07:47:52;;;;;;;0.30;0.30;;;;;;;-0.75;84.01;101295.38;5040248;28;20290;-77
2021/12/23 07:50:18;;;;;;;0.40;0.40;;;;;;;-0.72;83.82;101300.78;5057588;28;20275;-77
2021/12/23 07:52:43;;;;;;;0.40;0.40;;;;;;;-0.74;83.80;101304.91;5056215;28;20036;-77
2021/12/23 07:55:09;;;;;;;0.30;0.30;;;;;;;-0.72;83.92;101305.03;5057289;28;20029;-77
2021/12/23 07:57:34;;;;;;;0.83;0.83;;;;;;;-0.68;83.95;101308.75;5055257;28;20060;-77
2021/12/23 08:00:00;;;;;;;0.40;0.40;;;;;;;-0.73;83.80;101306.69;5056608;28;20045;-76
2021/12/23 08:02:26;;;;;;;0.30;0.30;;;;;;;-0.66;83.69;101309.75;5055982;28;20057;-76
2021/12/23 08:04:51;;;;;;;0.30;0.30;;;;;;;-0.68;83.95;101290.75;5057007;28;20279;-77
2021/12/23 08:07:17;;;;;;;0.40;0.40;;;;;;;-0.69;83.77;101297.53;5057013;28;20051;-75
2021/12/23 08:09:42;;;;;;;0.97;0.97;;;;;;;-0.65;83.49;101294.47;5056424;28;20035;-76
2021/12/23 08:12:08;;;;;;;0.40;0.40;;;;;;;-0.66;83.78;101292.66;5055874;28;20064;-77
2021/12/23 08:14:34;;;;;;;0.20;0.20;;;;;;;-0.66;83.81;101286.63;5055939;28;20043;-78
2021/12/23 08:17:02;;;;;;;0.30;0.30;;;;;;;-0.66;83.75;101274.66;5057802;28;20283;-78
2021/12/23 08:19:28;;;;;;;0.30;0.30;;;;;;;-0.62;83.83;101268.97;5056669;28;20029;-76
2021/12/23 08:21:53;;;;;;;0.20;0.20;;;;;;;-0.64;83.85;101264.50;5057045;28;20290;-77
2021/12/23 08:24:18;;;;;;;0.30;0.30;;;;;;;-0.54;83.22;101253.25;5057055;28;20119;-77
2021/12/23 08:26:51;;;;;;;0.20;0.20;;;;;;;-0.51;83.20;101250.94;5056725;28;20040;-77
2021/12/23 08:29:18;;;;;;;0.40;0.40;;;;;;;-0.54;83.30;101250.69;5054869;28;20043;-76
2021/12/23 08:31:44;;;;;;;0.30;0.30;;;;;;;-0.54;83.43;101250.69;5056644;28;20313;-75
2021/12/23 08:34:10;;;;;;;0.60;0.60;;;;;;;-0.51;83.48;101240.66;5056172;28;20756;-76
2021/12/23 08:36:36;;;;;;;0.30;0.30;;;;;;;-0.53;83.54;101234.47;5056060;28;20431;-76
2021/12/23 08:39:02;;;;;;;0.40;0.40;;;;;;;-0.52;83.66;101226.88;5056584;28;20031;-77
2021/12/23 08:41:27;;;;;;;0.40;0.40;;;;;;;-0.44;83.23;101222.34;5056335;28;20534;-77
2021/12/23 08:43:53;;;;;;;0.30;0.30;;;;;;;-0.38;83.22;101224.50;5039944;28;20033;-77
2021/12/23 08:46:18;;;;;;;0.30;0.30;;;;;;;-0.38;82.90;101217.66;5040316;28;20051;-77
2021/12/23 08:48:44;;;;;;;1.10;1.10;;;;;;;-0.34;83.04;101205.94;5039766;28;20353;-78
2021/12/23 08:51:09;;;;;;;0.40;0.40;;;;;;;-0.34;82.96;101193.97;5039951;28;20041;-77
2021/12/23 08:53:34;;;;;;;0.30;0.30;;;;;;;-0.33;83.04;101197.44;5040457;28;20080;-77
2021/12/23 08:56:00;;;;;;;0.30;0.30;;;;;;;-0.30;83.17;101197.69;5040334;28;20061;-77
2021/12/23 08:58:25;;;;;;;0.30;0.30;;;;;;;-0.27;82.93;101208.22;5040362;28;20029;-77
2021/12/23 09:00:50;;;;;;;0.23;0.23;;;;;;;-0.23;82.93;101201.63;5039640;28;20064;-79
2021/12/23 09:03:16;;;;;;;0.37;0.37;;;;;;;-0.20;82.67;101199.28;5048221;28;20168;-78
2021/12/23 09:05:42;;;;;;;0.30;0.30;;;;;;;-0.21;82.95;101187.19;5047960;28;20044;-76
2021/12/23 09:08:09;;;;;;;0.80;0.80;;;;;;;-0.18;81.95;101187.44;5049605;28;20033;-78
2021/12/23 09:10:35;;;;;;;0.30;0.30;;;;;;;-0.16;82.77;101175.59;5052419;28;20280;-77
2021/12/23 09:13:01;;;;;;;0.40;0.40;;;;;;;-0.18;82.60;101170.31;5032637;28;20295;-78
2021/12/23 09:15:26;;;;;;;0.40;0.40;;;;;;;-0.13;82.50;101172.34;5044605;28;20358;-76
2021/12/23 09:17:52;;;;;;;0.30;0.30;;;;;;;-0.09;82.48;101174.38;5030707;28;20418;-77
2021/12/23 09:20:19;;;;;;;0.30;0.30;;;;;;;-0.06;82.53;101165.22;5045960;28;20106;-77
2021/12/23 09:22:46;;;;;;;0.30;0.30;;;;;;;-0.05;82.86;101160.97;5054604;28;20426;-76
2021/12/23 09:25:22;;;;;;;0.40;0.40;;;;;;;-0.02;83.02;101167.25;5058249;28;20410;-77
2021/12/23 09:28:01;;;;;;;0.40;0.40;;;;;;;0.04;82.70;101166.81;5043534;28;20282;-76
2021/12/23 09:33:12;;;;;;;0.40;0.40;;;;;;;0.11;81.96;101163.00;5043836;28;20322;-76
2021/12/23 09:35:39;;;;;;;0.30;0.30;;;;;;;0.14;82.26;101155.53;5024041;28;20291;-77
2021/12/23 09:38:04;;;;;;;0.33;0.33;;;;;;;0.15;82.01;101153.84;5051791;28;20051;-76
2021/12/23 09:40:32;;;;;;;0.40;0.40;;;;;;;0.18;82.17;101146.38;5069356;28;20275;-76
2021/12/23 09:43:05;;;;;;;0.30;0.30;;;;;;;0.22;81.69;101153.53;5068660;28;20033;-77
2021/12/23 09:45:32;;;;;;;0.30;0.30;;;;;;;0.23;81.63;101151.06;5062946;28;20275;-76
2021/12/23 09:47:58;;;;;;;0.30;0.30;;;;;;;0.26;81.82;101146.16;5065002;28;20358;-76
2021/12/23 09:50:27;;;;;;;0.40;0.40;;;;;;;0.27;81.80;101142.78;5060489;28;20348;-76
2021/12/23 09:52:53;;;;;;;0.40;0.40;;;;;;;0.36;81.44;101134.84;5059581;28;20297;-75
2021/12/23 09:55:23;;;;;;;0.33;0.33;;;;;;;0.40;80.97;101126.59;5059212;28;20664;-76
2021/12/23 09:57:50;;;;;;;0.30;0.30;;;;;;;0.40;80.94;101135.97;5059751;28;20603;-75
2021/12/23 10:00:18;;;;;;;0.30;0.30;;;;;;;0.41;80.82;101135.19;5058946;28;20305;-74
2021/12/23 10:02:44;;;;;;;0.30;0.30;;;;;;;0.48;80.76;101131.38;5057176;28;20715;-78
2021/12/23 10:05:14;;;;;;;0.30;0.30;;;;;;;0.51;80.54;101131.63;5039527;28;20279;-78
2021/12/23 10:07:41;;;;;;;0.37;0.37;;;;;;;0.49;80.82;101128.03;5047562;28;20029;-76
2021/12/23 10:10:30;;;;;;;0.47;0.47;;;;;;;0.49;80.94;101136.66;5059161;28;20302;-77
2021/12/23 10:38:24;;;;;;;0.30;0.30;;;;;;;0.86;79.85;101115.25;5059221;28;20395;-76
2021/12/23 10:40:56;;;;;;;0.40;0.40;;;;;;;0.86;80.44;101109.19;5059008;28;20283;-77
2021/12/23 10:43:26;;;;;;;0.30;0.30;;;;;;;0.89;80.42;101104.25;5055012;28;20280;-77
2021/12/23 10:45:56;;;;;;;0.30;0.30;;;;;;;0.97;80.04;101105.69;5037877;28;20272;-77
2021/12/23 10:48:23;;;;;;;0.20;0.20;;;;;;;1.00;80.07;101107.59;5021490;28;20579;-77
2021/12/23 10:50:50;;;;;;;0.30;0.30;;;;;;;1.00;80.03;101110.19;5037994;28;20276;-77
2021/12/23 10:59:20;;;;;;;0.33;0.33;;;;;;;1.09;80.02;101110.84;5039995;28;20284;-77
2021/12/23 11:02:07;;;;;;;0.50;0.50;;;;;;;1.12;79.73;101098.13;5037755;28;20538;-77
2021/12/23 11:04:50;;;;;;;0.30;0.30;;;;;;;1.14;79.99;101104.31;5042669;28;20672;-77
2021/12/23 11:07:27;;;;;;;0.20;0.20;;;;;;;1.19;79.82;101097.78;5044931;28;20282;-78
2021/12/23 11:10:14;;;;;;;0.30;0.30;;;;;;;1.28;79.62;101086.31;5057262;28;20337;-74
2021/12/23 11:37:52;;;;;;;0.30;0.30;;;;;;;1.81;77.97;101002.13;5047602;28;20371;-76
2021/12/23 11:43:26;;;;;;;0.40;0.40;;;;;;;1.83;78.23;100974.69;5046295;28;20319;-77
2021/12/23 11:45:51;;;;;;;0.40;0.40;;;;;;;1.85;78.90;100984.34;5046803;28;20692;-77
2021/12/23 11:48:17;;;;;;;0.30;0.30;;;;;;;1.84;78.39;100961.91;5026493;28;20272;-76
2021/12/23 11:51:07;;;;;;;0.30;0.30;;;;;;;1.87;78.36;100958.63;5047237;28;20398;-76
2021/12/23 11:53:33;;;;;;;0.43;0.43;;;;;;;1.99;78.21;100953.38;5044687;28;20271;-75
2021/12/23 11:55:59;;;;;;;0.40;0.40;;;;;;;1.93;77.93;100946.09;5046680;28;20538;-76
2021/12/23 11:58:25;;;;;;;0.20;0.20;;;;;;;1.97;78.23;100940.34;5046031;28;20311;-76
2021/12/23 12:01:09;;;;;;;0.30;0.30;;;;;;;1.98;78.63;100942.13;5044720;28;20260;-76
2021/12/23 12:03:57;;;;;;;0.40;0.40;;;;;;;2.03;78.76;100937.25;5040831;28;20271;-76
2021/12/23 12:06:39;;;;;;;0.30;0.30;;;;;;;2.04;78.47;100933.88;5045244;28;20309;-76
2021/12/23 12:09:14;;;;;;;0.60;0.60;;;;;;;2.11;78.16;100936.06;5046333;28;20272;-76
2021/12/23 12:11:58;;;;;;;0.40;0.40;;;;;;;2.12;78.11;100921.47;5043644;28;20275;-76
2021/12/23 12:14:51;;;;;;;0.40;0.40;;;;;;;2.13;77.78;100925.84;5047106;28;20060;-76
2021/12/23 12:17:26;;;;;;;0.30;0.30;;;;;;;2.14;77.88;100928.53;5045287;28;20319;-75
2021/12/23 12:19:58;;;;;;;0.30;0.30;;;;;;;2.11;77.62;100928.31;5045707;28;20688;-75
2021/12/23 12:22:45;;;;;;;0.30;0.30;;;;;;;2.15;78.22;100921.66;5056733;28;20283;-76
2021/12/23 12:25:23;;;;;;;0.33;0.33;;;;;;;2.18;78.07;100917.56;5056811;28;20529;-72
2021/12/23 12:27:49;;;;;;;0.40;0.40;;;;;;;2.18;77.50;100927.91;5044950;28;20295;-76
2021/12/23 12:30:24;;;;;;;0.30;0.30;;;;;;;2.29;77.84;100919.94;5044922;28;20295;-75
2021/12/23 12:32:49;;;;;;;0.30;0.30;;;;;;;2.32;77.54;100905.53;5047184;28;20378;-76
2021/12/23 12:35:21;;;;;;;0.30;0.30;;;;;;;2.36;77.68;100906.59;5045319;28;20455;-77
2021/12/23 12:37:50;;;;;;;0.40;0.40;;;;;;;2.36;77.67;100919.53;5044554;28;20079;-75